sensor_id;sensor_type;location;lat;lon;timestamp;pressure;altitude;pressure_sealevel;temperature;humidity
64551;BME280;50945;44.472;-123.352;2023-06-19T00:00:39;100107.38;;;15.33;54.64
64551;BME280;50945;44.472;-123.352;2023-06-19T00:03:06;100110.78;;;15.29;55.46
64551;BME280;50945;44.472;-123.352;2023-06-19T00:05:32;100108.06;;;15.22;56.03
64551;BME280;50945;44.472;-123.352;2023-06-19T00:07:58;100113.25;;;15.12;56.58
64551;BME280;50945;44.472;-123.352;2023-06-19T00:10:24;100112.00;;;15.01;56.81
64551;BME280;50945;44.472;-123.352;2023-06-19T00:12:51;100118.41;;;14.95;57.72
64551;BME280;50945;44.472;-123.352;2023-06-19T00:15:17;100124.78;;;14.89;57.36
64551;BME280;50945;44.472;-123.352;2023-06-19T00:17:43;100127.59;;;14.75;56.79
64551;BME280;50945;44.472;-123.352;2023-06-19T00:20:09;100121.94;;;14.57;57.65
64551;BME280;50945;44.472;-123.352;2023-06-19T00:22:35;100121.13;;;14.36;58.24
64551;BME280;50945;44.472;-123.352;2023-06-19T00:25:02;100120.09;;;14.24;58.96
64551;BME280;50945;44.472;-123.352;2023-06-19T00:27:28;100129.84;;;14.20;59.65
64551;BME280;50945;44.472;-123.352;2023-06-19T00:29:54;100131.97;;;14.18;62.41
64551;BME280;50945;44.472;-123.352;2023-06-19T00:32:30;100130.88;;;14.19;59.91
64551;BME280;50945;44.472;-123.352;2023-06-19T00:34:56;100124.34;;;14.20;59.36
64551;BME280;50945;44.472;-123.352;2023-06-19T00:37:22;100130.69;;;14.20;59.69
64551;BME280;50945;44.472;-123.352;2023-06-19T00:39:48;100124.97;;;14.22;59.43
64551;BME280;50945;44.472;-123.352;2023-06-19T00:42:15;100120.72;;;14.26;59.41
64551;BME280;50945;44.472;-123.352;2023-06-19T00:44:41;100110.75;;;14.32;59.60
64551;BME280;50945;44.472;-123.352;2023-06-19T00:47:07;100109.94;;;14.31;59.07
64551;BME280;50945;44.472;-123.352;2023-06-19T00:49:33;100112.69;;;14.31;58.90
64551;BME280;50945;44.472;-123.352;2023-06-19T00:51:59;100108.66;;;14.34;59.05
64551;BME280;50945;44.472;-123.352;2023-06-19T00:54:26;100116.66;;;14.42;58.55
64551;BME280;50945;44.472;-123.352;2023-06-19T00:56:52;100106.28;;;14.51;59.06
64551;BME280;50945;44.472;-123.352;2023-06-19T00:59:20;100110.28;;;14.61;58.41
64551;BME280;50945;44.472;-123.352;2023-06-19T01:01:47;100109.44;;;14.68;58.13
64551;BME280;50945;44.472;-123.352;2023-06-19T01:04:16;100107.09;;;14.71;58.24
64551;BME280;50945;44.472;-123.352;2023-06-19T01:07:05;100100.28;;;14.80;58.60
64551;BME280;50945;44.472;-123.352;2023-06-19T01:09:42;100093.88;;;14.87;57.73
64551;BME280;50945;44.472;-123.352;2023-06-19T01:12:19;100089.47;;;14.86;57.52
64551;BME280;50945;44.472;-123.352;2023-06-19T01:14:54;100094.16;;;14.78;57.21
64551;BME280;50945;44.472;-123.352;2023-06-19T01:17:23;100092.66;;;14.76;57.53
64551;BME280;50945;44.472;-123.352;2023-06-19T01:19:49;100090.53;;;14.78;57.58
64551;BME280;50945;44.472;-123.352;2023-06-19T01:22:30;100086.53;;;14.74;57.26
64551;BME280;50945;44.472;-123.352;2023-06-19T01:24:56;100092.88;;;14.74;57.54
64551;BME280;50945;44.472;-123.352;2023-06-19T01:27:24;100086.13;;;14.70;57.11
64551;BME280;50945;44.472;-123.352;2023-06-19T01:29:51;100083.22;;;14.58;56.39
64551;BME280;50945;44.472;-123.352;2023-06-19T01:32:29;100082.63;;;14.43;56.74
64551;BME280;50945;44.472;-123.352;2023-06-19T01:34:57;100083.69;;;14.35;56.80
64551;BME280;50945;44.472;-123.352;2023-06-19T01:37:25;100085.59;;;14.35;57.20
64551;BME280;50945;44.472;-123.352;2023-06-19T01:39:56;100081.34;;;14.39;56.73
64551;BME280;50945;44.472;-123.352;2023-06-19T01:42:23;100090.00;;;14.42;56.55
64551;BME280;50945;44.472;-123.352;2023-06-19T01:44:50;100082.84;;;14.41;56.61
64551;BME280;50945;44.472;-123.352;2023-06-19T01:47:17;100091.91;;;14.42;56.28
64551;BME280;50945;44.472;-123.352;2023-06-19T01:49:46;100094.25;;;14.45;56.47
64551;BME280;50945;44.472;-123.352;2023-06-19T01:52:13;100084.50;;;14.42;56.61
64551;BME280;50945;44.472;-123.352;2023-06-19T01:54:40;100084.34;;;14.37;56.55
64551;BME280;50945;44.472;-123.352;2023-06-19T01:57:06;100089.19;;;14.35;56.73
64551;BME280;50945;44.472;-123.352;2023-06-19T01:59:32;100085.19;;;14.31;56.84
64551;BME280;50945;44.472;-123.352;2023-06-19T02:01:59;100100.22;;;14.29;56.58
64551;BME280;50945;44.472;-123.352;2023-06-19T02:04:25;100099.34;;;14.28;56.87
64551;BME280;50945;44.472;-123.352;2023-06-19T02:06:51;100100.00;;;14.30;56.71
64551;BME280;50945;44.472;-123.352;2023-06-19T02:09:17;100105.50;;;14.23;57.04
64551;BME280;50945;44.472;-123.352;2023-06-19T02:11:43;100098.94;;;14.24;56.94
64551;BME280;50945;44.472;-123.352;2023-06-19T02:14:10;100095.56;;;14.29;57.07
64551;BME280;50945;44.472;-123.352;2023-06-19T02:16:39;100096.19;;;14.31;56.63
64551;BME280;50945;44.472;-123.352;2023-06-19T02:19:12;100098.09;;;14.31;56.84
64551;BME280;50945;44.472;-123.352;2023-06-19T02:21:39;100101.47;;;14.33;56.83
64551;BME280;50945;44.472;-123.352;2023-06-19T02:24:05;100086.88;;;14.32;57.34
64551;BME280;50945;44.472;-123.352;2023-06-19T02:26:31;100096.81;;;14.33;57.33
64551;BME280;50945;44.472;-123.352;2023-06-19T02:28:58;100098.28;;;14.36;57.19
64551;BME280;50945;44.472;-123.352;2023-06-19T02:31:24;100090.88;;;14.30;56.99
64551;BME280;50945;44.472;-123.352;2023-06-19T02:33:55;100095.97;;;14.26;57.40
64551;BME280;50945;44.472;-123.352;2023-06-19T02:36:21;100088.59;;;14.20;57.34
64551;BME280;50945;44.472;-123.352;2023-06-19T02:38:48;100091.38;;;14.13;57.62
64551;BME280;50945;44.472;-123.352;2023-06-19T02:41:14;100087.38;;;14.09;57.90
64551;BME280;50945;44.472;-123.352;2023-06-19T02:43:42;100098.78;;;14.06;57.85
64551;BME280;50945;44.472;-123.352;2023-06-19T02:46:09;100095.41;;;14.04;58.37
64551;BME280;50945;44.472;-123.352;2023-06-19T02:48:35;100092.88;;;14.02;58.07
64551;BME280;50945;44.472;-123.352;2023-06-19T02:51:01;100095.00;;;14.00;57.78
64551;BME280;50945;44.472;-123.352;2023-06-19T02:53:28;100097.31;;;13.97;58.06
64551;BME280;50945;44.472;-123.352;2023-06-19T02:55:54;100094.56;;;13.97;58.56
64551;BME280;50945;44.472;-123.352;2023-06-19T02:58:20;100089.28;;;14.02;58.02
64551;BME280;50945;44.472;-123.352;2023-06-19T03:00:46;100093.91;;;14.01;58.04
64551;BME280;50945;44.472;-123.352;2023-06-19T03:03:12;100093.50;;;13.98;58.06
64551;BME280;50945;44.472;-123.352;2023-06-19T03:05:39;100089.06;;;13.90;58.07
64551;BME280;50945;44.472;-123.352;2023-06-19T03:08:05;100097.53;;;13.88;58.51
64551;BME280;50945;44.472;-123.352;2023-06-19T03:10:31;100096.69;;;13.88;58.20
64551;BME280;50945;44.472;-123.352;2023-06-19T03:12:58;100088.22;;;13.76;58.31
64551;BME280;50945;44.472;-123.352;2023-06-19T03:15:24;100099.88;;;13.65;59.51
64551;BME280;50945;44.472;-123.352;2023-06-19T03:17:52;100108.31;;;13.63;58.54
64551;BME280;50945;44.472;-123.352;2023-06-19T03:20:18;100102.19;;;13.61;58.75
64551;BME280;50945;44.472;-123.352;2023-06-19T03:22:44;100100.50;;;13.60;58.52
64551;BME280;50945;44.472;-123.352;2023-06-19T03:25:10;100100.06;;;13.57;58.54
64551;BME280;50945;44.472;-123.352;2023-06-19T03:27:36;100107.25;;;13.51;58.65
64551;BME280;50945;44.472;-123.352;2023-06-19T03:30:04;100097.13;;;13.45;58.46
64551;BME280;50945;44.472;-123.352;2023-06-19T03:32:34;100103.22;;;13.40;58.68
64551;BME280;50945;44.472;-123.352;2023-06-19T03:35:01;100094.78;;;13.35;59.01
64551;BME280;50945;44.472;-123.352;2023-06-19T03:37:27;100095.59;;;13.29;59.30
64551;BME280;50945;44.472;-123.352;2023-06-19T03:39:53;100093.47;;;13.24;59.54
64551;BME280;50945;44.472;-123.352;2023-06-19T03:42:20;100094.06;;;13.20;59.89
64551;BME280;50945;44.472;-123.352;2023-06-19T03:44:46;100096.63;;;13.15;59.93
64551;BME280;50945;44.472;-123.352;2023-06-19T03:47:12;100093.84;;;13.08;60.00
64551;BME280;50945;44.472;-123.352;2023-06-19T03:49:38;100095.31;;;12.97;60.27
64551;BME280;50945;44.472;-123.352;2023-06-19T03:52:05;100098.22;;;12.89;60.16
64551;BME280;50945;44.472;-123.352;2023-06-19T03:54:31;100101.19;;;12.87;60.57
64551;BME280;50945;44.472;-123.352;2023-06-19T03:56:57;100100.75;;;12.84;60.46
64551;BME280;50945;44.472;-123.352;2023-06-19T03:59:24;100108.31;;;12.75;60.43
64551;BME280;50945;44.472;-123.352;2023-06-19T04:01:50;100108.91;;;12.64;60.45
64551;BME280;50945;44.472;-123.352;2023-06-19T04:04:16;100110.13;;;12.54;60.77
64551;BME280;50945;44.472;-123.352;2023-06-19T04:06:42;100110.50;;;12.45;61.09
64551;BME280;50945;44.472;-123.352;2023-06-19T04:09:08;100112.34;;;12.38;61.20
64551;BME280;50945;44.472;-123.352;2023-06-19T04:11:35;100118.47;;;12.33;61.25
64551;BME280;50945;44.472;-123.352;2023-06-19T04:14:01;100126.19;;;12.23;61.11
64551;BME280;50945;44.472;-123.352;2023-06-19T04:16:27;100118.13;;;12.14;61.48
64551;BME280;50945;44.472;-123.352;2023-06-19T04:18:53;100118.06;;;12.08;61.00
64551;BME280;50945;44.472;-123.352;2023-06-19T04:21:19;100110.22;;;11.98;61.51
64551;BME280;50945;44.472;-123.352;2023-06-19T04:23:45;100114.53;;;11.86;61.42
64551;BME280;50945;44.472;-123.352;2023-06-19T04:26:12;100116.75;;;11.75;61.35
64551;BME280;50945;44.472;-123.352;2023-06-19T04:28:38;100123.59;;;11.65;61.86
64551;BME280;50945;44.472;-123.352;2023-06-19T04:31:05;100114.31;;;11.59;61.71
64551;BME280;50945;44.472;-123.352;2023-06-19T04:33:31;100119.31;;;11.55;62.14
64551;BME280;50945;44.472;-123.352;2023-06-19T04:35:58;100117.63;;;11.54;62.17
64551;BME280;50945;44.472;-123.352;2023-06-19T04:38:24;100119.91;;;11.51;61.56
64551;BME280;50945;44.472;-123.352;2023-06-19T04:40:51;100128.84;;;11.38;62.34
64551;BME280;50945;44.472;-123.352;2023-06-19T04:43:17;100127.84;;;11.24;62.22
64551;BME280;50945;44.472;-123.352;2023-06-19T04:45:43;100125.47;;;11.14;62.94
64551;BME280;50945;44.472;-123.352;2023-06-19T04:48:10;100129.34;;;11.05;62.97
64551;BME280;50945;44.472;-123.352;2023-06-19T04:50:37;100130.50;;;10.96;62.97
64551;BME280;50945;44.472;-123.352;2023-06-19T04:53:03;100130.44;;;10.89;63.67
64551;BME280;50945;44.472;-123.352;2023-06-19T04:55:29;100140.50;;;10.89;63.44
64551;BME280;50945;44.472;-123.352;2023-06-19T04:57:56;100142.41;;;10.88;63.65
64551;BME280;50945;44.472;-123.352;2023-06-19T05:00:22;100134.84;;;10.90;64.11
64551;BME280;50945;44.472;-123.352;2023-06-19T05:02:50;100145.78;;;10.90;63.92
64551;BME280;50945;44.472;-123.352;2023-06-19T05:05:16;100147.41;;;10.84;68.11
64551;BME280;50945;44.472;-123.352;2023-06-19T05:07:42;100142.91;;;10.77;64.06
64551;BME280;50945;44.472;-123.352;2023-06-19T05:10:10;100153.38;;;10.73;63.86
64551;BME280;50945;44.472;-123.352;2023-06-19T05:12:37;100144.91;;;10.68;64.08
64551;BME280;50945;44.472;-123.352;2023-06-19T05:15:04;100146.41;;;10.56;64.12
64551;BME280;50945;44.472;-123.352;2023-06-19T05:17:30;100148.59;;;10.45;64.36
64551;BME280;50945;44.472;-123.352;2023-06-19T05:19:56;100154.13;;;10.37;64.34
64551;BME280;50945;44.472;-123.352;2023-06-19T05:22:22;100140.38;;;10.31;64.24
64551;BME280;50945;44.472;-123.352;2023-06-19T05:24:49;100144.50;;;10.26;64.61
64551;BME280;50945;44.472;-123.352;2023-06-19T05:27:15;100143.84;;;10.24;64.77
64551;BME280;50945;44.472;-123.352;2023-06-19T05:29:42;100145.56;;;10.25;65.20
64551;BME280;50945;44.472;-123.352;2023-06-19T05:32:08;100139.03;;;10.26;65.04
64551;BME280;50945;44.472;-123.352;2023-06-19T05:34:34;100144.13;;;10.30;64.88
64551;BME280;50945;44.472;-123.352;2023-06-19T05:37:00;100140.38;;;10.31;64.93
64551;BME280;50945;44.472;-123.352;2023-06-19T05:39:29;100144.81;;;10.32;65.23
64551;BME280;50945;44.472;-123.352;2023-06-19T05:41:55;100144.81;;;10.32;65.27
64551;BME280;50945;44.472;-123.352;2023-06-19T05:44:21;100146.03;;;10.29;65.09
64551;BME280;50945;44.472;-123.352;2023-06-19T05:46:47;100151.00;;;10.25;65.06
64551;BME280;50945;44.472;-123.352;2023-06-19T05:49:13;100148.66;;;10.22;65.61
64551;BME280;50945;44.472;-123.352;2023-06-19T05:51:39;100141.88;;;10.18;65.63
64551;BME280;50945;44.472;-123.352;2023-06-19T05:54:06;100138.84;;;10.13;65.80
64551;BME280;50945;44.472;-123.352;2023-06-19T05:56:33;100135.66;;;10.09;66.32
64551;BME280;50945;44.472;-123.352;2023-06-19T05:59:00;100135.34;;;10.04;65.71
64551;BME280;50945;44.472;-123.352;2023-06-19T06:01:27;100139.69;;;9.99;66.50
64551;BME280;50945;44.472;-123.352;2023-06-19T06:03:56;100125.75;;;9.94;66.13
64551;BME280;50945;44.472;-123.352;2023-06-19T06:06:23;100139.09;;;9.88;71.92
64551;BME280;50945;44.472;-123.352;2023-06-19T06:08:49;100132.31;;;9.84;67.20
64551;BME280;50945;44.472;-123.352;2023-06-19T06:11:17;100127.03;;;9.83;66.73
64551;BME280;50945;44.472;-123.352;2023-06-19T06:13:43;100127.41;;;9.80;66.84
64551;BME280;50945;44.472;-123.352;2023-06-19T06:16:09;100119.75;;;9.75;66.87
64551;BME280;50945;44.472;-123.352;2023-06-19T06:18:35;100118.44;;;9.71;66.86
64551;BME280;50945;44.472;-123.352;2023-06-19T06:21:02;100130.59;;;9.68;67.25
64551;BME280;50945;44.472;-123.352;2023-06-19T06:23:28;100117.31;;;9.65;67.35
64551;BME280;50945;44.472;-123.352;2023-06-19T06:25:54;100131.97;;;9.64;67.40
64551;BME280;50945;44.472;-123.352;2023-06-19T06:28:27;100125.19;;;9.60;66.91
64551;BME280;50945;44.472;-123.352;2023-06-19T06:30:53;100132.25;;;9.55;67.69
64551;BME280;50945;44.472;-123.352;2023-06-19T06:33:19;100132.97;;;9.48;73.81
64551;BME280;50945;44.472;-123.352;2023-06-19T06:35:45;100132.47;;;9.45;68.01
64551;BME280;50945;44.472;-123.352;2023-06-19T06:38:11;100119.41;;;9.40;67.92
64551;BME280;50945;44.472;-123.352;2023-06-19T06:40:38;100123.72;;;9.35;68.07
64551;BME280;50945;44.472;-123.352;2023-06-19T06:43:04;100127.81;;;9.30;67.55
64551;BME280;50945;44.472;-123.352;2023-06-19T06:45:30;100126.31;;;9.28;67.82
64551;BME280;50945;44.472;-123.352;2023-06-19T06:47:56;100122.94;;;9.26;67.50
64551;BME280;50945;44.472;-123.352;2023-06-19T06:50:22;100120.38;;;9.24;67.86
64551;BME280;50945;44.472;-123.352;2023-06-19T06:52:48;100127.03;;;9.22;67.68
64551;BME280;50945;44.472;-123.352;2023-06-19T06:55:14;100122.13;;;9.17;68.23
64551;BME280;50945;44.472;-123.352;2023-06-19T06:57:40;100125.75;;;9.09;68.52
64551;BME280;50945;44.472;-123.352;2023-06-19T07:00:07;100125.47;;;9.04;68.79
64551;BME280;50945;44.472;-123.352;2023-06-19T07:02:38;100120.53;;;9.00;68.65
64551;BME280;50945;44.472;-123.352;2023-06-19T07:05:07;100121.25;;;8.93;68.75
64551;BME280;50945;44.472;-123.352;2023-06-19T07:07:33;100118.41;;;8.87;68.57
64551;BME280;50945;44.472;-123.352;2023-06-19T07:09:59;100125.78;;;8.78;69.36
64551;BME280;50945;44.472;-123.352;2023-06-19T07:12:25;100121.69;;;8.74;68.91
64551;BME280;50945;44.472;-123.352;2023-06-19T07:14:55;100121.75;;;8.66;69.03
64551;BME280;50945;44.472;-123.352;2023-06-19T07:17:21;100116.00;;;8.61;69.52
64551;BME280;50945;44.472;-123.352;2023-06-19T07:19:47;100114.84;;;8.55;69.26
64551;BME280;50945;44.472;-123.352;2023-06-19T07:22:14;100114.34;;;8.51;69.61
64551;BME280;50945;44.472;-123.352;2023-06-19T07:24:41;100117.25;;;8.50;69.65
64551;BME280;50945;44.472;-123.352;2023-06-19T07:27:07;100122.19;;;8.46;69.60
64551;BME280;50945;44.472;-123.352;2023-06-19T07:29:33;100126.81;;;8.46;69.60
64551;BME280;50945;44.472;-123.352;2023-06-19T07:31:59;100121.84;;;8.41;69.64
64551;BME280;50945;44.472;-123.352;2023-06-19T07:34:28;100120.31;;;8.38;69.58
64551;BME280;50945;44.472;-123.352;2023-06-19T07:36:54;100113.50;;;8.34;69.96
64551;BME280;50945;44.472;-123.352;2023-06-19T07:39:20;100112.00;;;8.32;69.92
64551;BME280;50945;44.472;-123.352;2023-06-19T07:41:47;100120.34;;;8.30;69.67
64551;BME280;50945;44.472;-123.352;2023-06-19T07:44:13;100116.09;;;8.28;69.94
64551;BME280;50945;44.472;-123.352;2023-06-19T07:46:39;100119.84;;;8.27;70.06
64551;BME280;50945;44.472;-123.352;2023-06-19T07:49:05;100114.41;;;8.27;69.97
64551;BME280;50945;44.472;-123.352;2023-06-19T07:51:31;100110.34;;;8.23;69.91
64551;BME280;50945;44.472;-123.352;2023-06-19T07:53:57;100115.28;;;8.19;69.88
64551;BME280;50945;44.472;-123.352;2023-06-19T07:56:24;100119.69;;;8.20;70.10
64551;BME280;50945;44.472;-123.352;2023-06-19T07:58:50;100114.25;;;8.20;70.30
64551;BME280;50945;44.472;-123.352;2023-06-19T08:01:16;100114.41;;;8.18;70.11
64551;BME280;50945;44.472;-123.352;2023-06-19T08:03:42;100108.97;;;8.18;70.83
64551;BME280;50945;44.472;-123.352;2023-06-19T08:06:09;100107.28;;;8.17;70.83
64551;BME280;50945;44.472;-123.352;2023-06-19T08:08:35;100112.75;;;8.17;70.46
64551;BME280;50945;44.472;-123.352;2023-06-19T08:11:01;100110.00;;;8.17;70.51
64551;BME280;50945;44.472;-123.352;2023-06-19T08:13:27;100102.84;;;8.16;71.15
64551;BME280;50945;44.472;-123.352;2023-06-19T08:15:53;100107.28;;;8.17;70.44
64551;BME280;50945;44.472;-123.352;2023-06-19T08:18:20;100103.69;;;8.17;70.37
64551;BME280;50945;44.472;-123.352;2023-06-19T08:20:46;100107.47;;;8.16;70.48
64551;BME280;50945;44.472;-123.352;2023-06-19T08:23:13;100105.56;;;8.16;70.24
64551;BME280;50945;44.472;-123.352;2023-06-19T08:25:39;100108.31;;;8.16;70.94
64551;BME280;50945;44.472;-123.352;2023-06-19T08:28:05;100104.06;;;8.14;71.04
64551;BME280;50945;44.472;-123.352;2023-06-19T08:30:32;100101.03;;;8.09;71.31
64551;BME280;50945;44.472;-123.352;2023-06-19T08:32:58;100104.09;;;8.06;71.28
64551;BME280;50945;44.472;-123.352;2023-06-19T08:35:24;100096.94;;;8.05;71.18
64551;BME280;50945;44.472;-123.352;2023-06-19T08:37:50;100106.97;;;8.04;71.27
64551;BME280;50945;44.472;-123.352;2023-06-19T08:40:16;100108.84;;;8.04;71.60
64551;BME280;50945;44.472;-123.352;2023-06-19T08:42:43;100095.25;;;8.04;71.37
64551;BME280;50945;44.472;-123.352;2023-06-19T08:45:09;100101.56;;;7.96;70.49
64551;BME280;50945;44.472;-123.352;2023-06-19T08:47:35;100107.53;;;7.83;70.80
64551;BME280;50945;44.472;-123.352;2023-06-19T08:50:01;100102.97;;;7.75;71.01
64551;BME280;50945;44.472;-123.352;2023-06-19T08:52:31;100105.69;;;7.75;71.86
64551;BME280;50945;44.472;-123.352;2023-06-19T08:54:57;100100.56;;;7.80;71.84
64551;BME280;50945;44.472;-123.352;2023-06-19T08:57:37;100105.47;;;7.85;72.59
64551;BME280;50945;44.472;-123.352;2023-06-19T09:00:04;100100.19;;;7.92;72.00
64551;BME280;50945;44.472;-123.352;2023-06-19T09:02:45;100096.44;;;8.01;72.41
64551;BME280;50945;44.472;-123.352;2023-06-19T09:05:16;100093.88;;;8.08;71.25
64551;BME280;50945;44.472;-123.352;2023-06-19T09:07:44;100091.47;;;8.13;71.46
64551;BME280;50945;44.472;-123.352;2023-06-19T09:10:17;100098.94;;;8.19;71.65
64551;BME280;50945;44.472;-123.352;2023-06-19T09:12:58;100097.75;;;8.22;72.46
64551;BME280;50945;44.472;-123.352;2023-06-19T09:15:30;100091.97;;;8.16;70.94
64551;BME280;50945;44.472;-123.352;2023-06-19T09:18:04;100089.63;;;8.05;71.50
64551;BME280;50945;44.472;-123.352;2023-06-19T09:20:32;100090.16;;;8.00;71.41
64551;BME280;50945;44.472;-123.352;2023-06-19T09:22:59;100084.38;;;7.95;71.57
64551;BME280;50945;44.472;-123.352;2023-06-19T09:25:25;100093.75;;;7.93;72.09
64551;BME280;50945;44.472;-123.352;2023-06-19T09:27:56;100086.75;;;7.90;72.01
64551;BME280;50945;44.472;-123.352;2023-06-19T09:30:23;100091.69;;;7.87;72.19
64551;BME280;50945;44.472;-123.352;2023-06-19T09:32:49;100091.19;;;7.83;72.36
64551;BME280;50945;44.472;-123.352;2023-06-19T09:35:15;100088.66;;;7.81;71.96
64551;BME280;50945;44.472;-123.352;2023-06-19T09:37:42;100091.38;;;7.81;72.52
64551;BME280;50945;44.472;-123.352;2023-06-19T09:40:08;100092.25;;;7.82;72.24
64551;BME280;50945;44.472;-123.352;2023-06-19T09:42:39;100090.38;;;7.83;72.57
64551;BME280;50945;44.472;-123.352;2023-06-19T09:45:13;100090.03;;;7.86;72.84
64551;BME280;50945;44.472;-123.352;2023-06-19T09:47:47;100091.38;;;7.90;72.88
64551;BME280;50945;44.472;-123.352;2023-06-19T09:50:17;100086.25;;;7.95;72.34
64551;BME280;50945;44.472;-123.352;2023-06-19T09:52:44;100084.88;;;7.99;72.83
64551;BME280;50945;44.472;-123.352;2023-06-19T09:55:12;100081.81;;;8.02;72.27
64551;BME280;50945;44.472;-123.352;2023-06-19T09:57:39;100082.31;;;8.06;72.52
64551;BME280;50945;44.472;-123.352;2023-06-19T10:00:08;100085.53;;;8.09;72.43
64551;BME280;50945;44.472;-123.352;2023-06-19T10:02:43;100090.63;;;8.12;72.49
64551;BME280;50945;44.472;-123.352;2023-06-19T10:05:10;100082.97;;;8.16;72.18
64551;BME280;50945;44.472;-123.352;2023-06-19T10:07:45;100082.78;;;8.17;72.42
64551;BME280;50945;44.472;-123.352;2023-06-19T10:10:24;100078.00;;;8.19;73.04
64551;BME280;50945;44.472;-123.352;2023-06-19T10:12:54;100085.63;;;8.24;72.56
64551;BME280;50945;44.472;-123.352;2023-06-19T10:15:23;100090.06;;;8.25;72.31
64551;BME280;50945;44.472;-123.352;2023-06-19T10:18:13;100080.00;;;8.26;75.03
64551;BME280;50945;44.472;-123.352;2023-06-19T10:20:42;100078.34;;;8.25;72.97
64551;BME280;50945;44.472;-123.352;2023-06-19T10:23:17;100078.50;;;8.23;72.91
64551;BME280;50945;44.472;-123.352;2023-06-19T10:25:45;100088.72;;;8.21;73.02
64551;BME280;50945;44.472;-123.352;2023-06-19T10:28:46;100083.44;;;8.19;76.17
64551;BME280;50945;44.472;-123.352;2023-06-19T10:31:12;100089.91;;;8.18;72.89
64551;BME280;50945;44.472;-123.352;2023-06-19T10:33:38;100089.91;;;8.18;73.07
64551;BME280;50945;44.472;-123.352;2023-06-19T10:36:18;100082.63;;;8.19;73.97
64551;BME280;50945;44.472;-123.352;2023-06-19T10:38:45;100084.97;;;8.22;73.62
64551;BME280;50945;44.472;-123.352;2023-06-19T10:41:16;100082.91;;;8.24;73.24
64551;BME280;50945;44.472;-123.352;2023-06-19T10:43:53;100090.25;;;8.24;73.75
64551;BME280;50945;44.472;-123.352;2023-06-19T10:46:21;100085.63;;;8.24;73.24
64551;BME280;50945;44.472;-123.352;2023-06-19T10:48:49;100084.13;;;8.22;72.90
64551;BME280;50945;44.472;-123.352;2023-06-19T10:51:19;100088.91;;;8.19;73.31
64551;BME280;50945;44.472;-123.352;2023-06-19T10:53:45;100089.91;;;8.18;73.32
64551;BME280;50945;44.472;-123.352;2023-06-19T10:56:12;100089.91;;;8.18;73.22
64551;BME280;50945;44.472;-123.352;2023-06-19T10:58:38;100090.59;;;8.21;73.29
64551;BME280;50945;44.472;-123.352;2023-06-19T11:01:04;100094.50;;;8.18;73.37
64551;BME280;50945;44.472;-123.352;2023-06-19T11:03:31;100088.22;;;8.17;73.70
64551;BME280;50945;44.472;-123.352;2023-06-19T11:05:57;100093.69;;;8.17;73.84
64551;BME280;50945;44.472;-123.352;2023-06-19T11:08:24;100093.69;;;8.17;74.03
64551;BME280;50945;44.472;-123.352;2023-06-19T11:10:50;100095.19;;;8.20;73.84
64551;BME280;50945;44.472;-123.352;2023-06-19T11:13:18;100094.50;;;8.18;73.90
64551;BME280;50945;44.472;-123.352;2023-06-19T11:15:45;100101.84;;;8.17;74.05
64551;BME280;50945;44.472;-123.352;2023-06-19T11:18:16;100098.44;;;8.15;74.11
64551;BME280;50945;44.472;-123.352;2023-06-19T11:20:47;100098.63;;;8.14;74.10
64551;BME280;50945;44.472;-123.352;2023-06-19T11:23:15;100095.41;;;8.10;74.34
64551;BME280;50945;44.472;-123.352;2023-06-19T11:25:42;100101.03;;;8.09;74.05
64551;BME280;50945;44.472;-123.352;2023-06-19T11:28:15;100102.38;;;8.05;74.69
64551;BME280;50945;44.472;-123.352;2023-06-19T11:30:43;100107.31;;;8.01;73.92
64551;BME280;50945;44.472;-123.352;2023-06-19T11:33:20;100120.09;;;8.00;75.18
64551;BME280;50945;44.472;-123.352;2023-06-19T11:35:53;100117.53;;;7.99;74.18
64551;BME280;50945;44.472;-123.352;2023-06-19T11:38:25;100111.59;;;7.95;74.30
64551;BME280;50945;44.472;-123.352;2023-06-19T11:40:52;100117.41;;;7.92;74.05
64551;BME280;50945;44.472;-123.352;2023-06-19T11:43:25;100113.97;;;7.90;74.61
64551;BME280;50945;44.472;-123.352;2023-06-19T11:45:52;100127.97;;;7.87;74.69
64551;BME280;50945;44.472;-123.352;2023-06-19T11:48:25;100118.25;;;7.85;75.09
64551;BME280;50945;44.472;-123.352;2023-06-19T11:50:51;100124.72;;;7.84;74.66
64551;BME280;50945;44.472;-123.352;2023-06-19T11:53:22;100125.75;;;7.83;75.18
64551;BME280;50945;44.472;-123.352;2023-06-19T11:55:49;100123.84;;;7.83;74.32
64551;BME280;50945;44.472;-123.352;2023-06-19T11:58:16;100125.75;;;7.83;74.64
64551;BME280;50945;44.472;-123.352;2023-06-19T12:00:42;100126.94;;;7.80;74.94
64551;BME280;50945;44.472;-123.352;2023-06-19T12:03:09;100134.41;;;7.78;74.80
64551;BME280;50945;44.472;-123.352;2023-06-19T12:05:36;100131.88;;;7.76;74.79
64551;BME280;50945;44.472;-123.352;2023-06-19T12:08:03;100135.44;;;7.77;74.76
64551;BME280;50945;44.472;-123.352;2023-06-19T12:10:32;100128.28;;;7.76;81.85
64551;BME280;50945;44.472;-123.352;2023-06-19T12:12:58;100135.63;;;7.75;75.40
64551;BME280;50945;44.472;-123.352;2023-06-19T12:15:25;100131.69;;;7.78;75.25
64551;BME280;50945;44.472;-123.352;2023-06-19T12:17:52;100143.28;;;7.80;74.89
64551;BME280;50945;44.472;-123.352;2023-06-19T12:20:18;100143.78;;;7.84;74.36
64551;BME280;50945;44.472;-123.352;2023-06-19T12:22:45;100145.28;;;7.86;75.30
64551;BME280;50945;44.472;-123.352;2023-06-19T12:25:11;100142.25;;;7.89;75.14
64551;BME280;50945;44.472;-123.352;2023-06-19T12:27:38;100143.06;;;7.90;74.51